Terminal Aerodrome Forecast
Issued by NWS Louisville, KY

Home | Current Version | Previous Version | Text Only | Print | Product List | Glossary On
Versions: 1 2 3 4 5 6 7 8 9 10 11 12 13 14
522
FTUS43 KLMK 211129
TAFLEX
TAF
KLEX 211129Z 2112/2212 20011KT P6SM VCSH FEW030 BKN100
     FM211300 23011KT P6SM -SHRA OVC015
     FM211600 30010KT P6SM -SHRA OVC010
     FM212100 36008KT 6SM -SHRA OVC008
     FM220900 06009KT 3SM SHRA OVC004=

USA.gov is the U.S. government's official web portal to all federal, state and local government web resources and services.